createdAt,value
2018-09-30T00:00:16.765Z,1017.10
2018-09-30T00:01:15.998Z,1017.11
2018-09-30T00:02:15.960Z,1017.18
2018-09-30T00:03:15.994Z,1017.17
2018-09-30T00:04:15.957Z,1017.24
2018-09-30T00:05:16.767Z,1017.20
2018-09-30T00:06:15.914Z,1017.19
2018-09-30T00:07:16.765Z,1017.17
2018-09-30T00:08:16.275Z,1017.16
2018-09-30T00:09:16.765Z,1017.18
2018-09-30T00:10:16.763Z,1017.21
2018-09-30T00:11:15.865Z,1017.24
2018-09-30T00:12:15.855Z,1017.17
2018-09-30T00:13:15.863Z,1017.26
2018-09-30T00:14:15.840Z,1017.20
2018-09-30T00:15:16.764Z,1017.21
2018-09-30T00:16:16.766Z,1017.19
2018-09-30T00:17:15.803Z,1017.10
2018-09-30T00:18:15.811Z,1017.19
2018-09-30T00:19:16.765Z,1017.26
2018-09-30T00:20:16.768Z,1017.20
2018-09-30T00:21:15.758Z,1017.22
2018-09-30T00:22:15.747Z,1017.22
2018-09-30T00:23:15.910Z,1017.12
2018-09-30T00:24:15.730Z,1017.08
2018-09-30T00:25:15.722Z,1017.07
2018-09-30T00:26:16.271Z,1017.10
2018-09-30T00:27:15.694Z,1017.09
2018-09-30T00:28:15.712Z,1017.10
2018-09-30T00:29:15.670Z,1017.05
2018-09-30T00:30:15.665Z,1017.08
2018-09-30T00:31:15.647Z,1016.99
2018-09-30T00:32:15.638Z,1017.04
2018-09-30T00:33:15.783Z,1016.97
2018-09-30T00:34:15.616Z,1016.98
2018-09-30T00:35:15.607Z,1016.94
2018-09-30T00:36:16.382Z,1016.95
2018-09-30T00:37:15.588Z,1016.95
2018-09-30T00:38:15.601Z,1016.94
2018-09-30T00:39:16.267Z,1016.92
2018-09-30T00:40:16.264Z,1016.93
2018-09-30T00:41:16.310Z,1016.87
2018-09-30T00:42:16.268Z,1016.88
2018-09-30T00:43:15.787Z,1016.85
2018-09-30T00:44:15.511Z,1016.89
2018-09-30T00:45:15.498Z,1016.77
2018-09-30T00:46:16.425Z,1016.82
2018-09-30T00:47:15.480Z,1016.82
2018-09-30T00:48:15.781Z,1016.78
2018-09-30T00:49:15.456Z,1016.76
2018-09-30T00:50:15.446Z,1016.72
2018-09-30T00:51:15.438Z,1016.73
2018-09-30T00:52:16.264Z,1016.72
2018-09-30T00:53:15.781Z,1016.71
2018-09-30T00:54:16.267Z,1016.69
2018-09-30T00:55:15.390Z,1016.71
2018-09-30T00:56:15.386Z,1016.68
2018-09-30T00:57:15.370Z,1016.73
2018-09-30T00:58:15.788Z,1016.73
2018-09-30T00:59:15.361Z,1016.67
2018-09-30T01:00:15.337Z,1016.66
2018-09-30T01:01:16.284Z,1016.63
2018-09-30T01:02:16.272Z,1016.63
2018-09-30T01:03:15.438Z,1016.64
2018-09-30T01:04:15.298Z,1016.62
2018-09-30T01:05:16.269Z,1016.62
2018-09-30T01:06:15.272Z,1016.59
2018-09-30T01:07:15.272Z,1016.56
2018-09-30T01:08:15.271Z,1016.55
2018-09-30T01:09:15.246Z,1016.47
2018-09-30T01:10:15.242Z,1016.50
2018-09-30T01:11:15.219Z,1016.50
2018-09-30T01:12:15.214Z,1016.42
2018-09-30T01:13:15.214Z,1016.45
2018-09-30T01:14:15.188Z,1016.36
2018-09-30T01:15:15.175Z,1016.40
2018-09-30T01:16:15.164Z,1016.32
2018-09-30T01:17:15.163Z,1016.37
2018-09-30T01:18:15.188Z,1016.29
2018-09-30T01:19:15.131Z,1016.30
2018-09-30T01:20:15.118Z,1016.32
2018-09-30T01:21:15.107Z,1016.29
2018-09-30T01:22:15.106Z,1016.24
2018-09-30T01:23:15.285Z,1016.22
2018-09-30T01:24:15.076Z,1016.24
2018-09-30T01:25:15.076Z,1016.20
2018-09-30T01:26:15.054Z,1016.17
2018-09-30T01:27:15.769Z,1016.18
2018-09-30T01:28:15.286Z,1016.17
2018-09-30T01:29:15.031Z,1016.06
2018-09-30T01:30:15.780Z,1016.04
2018-09-30T01:31:15.776Z,1016.06
2018-09-30T01:32:15.775Z,1015.97
2018-09-30T01:33:15.300Z,1015.96
2018-09-30T01:34:15.768Z,1016.01
2018-09-30T01:35:14.957Z,1015.95
2018-09-30T01:36:14.946Z,1015.96
2018-09-30T01:37:14.935Z,1015.92
2018-09-30T01:38:15.293Z,1015.91
2018-09-30T01:39:15.772Z,1015.84
2018-09-30T01:40:15.767Z,1015.91
2018-09-30T01:41:14.899Z,1015.91
2018-09-30T01:42:15.777Z,1015.88
2018-09-30T01:43:14.898Z,1015.90
2018-09-30T01:44:14.866Z,1015.84
2018-09-30T01:45:15.766Z,1015.82
2018-09-30T01:46:14.836Z,1015.84
2018-09-30T01:47:15.776Z,1015.78
2018-09-30T01:48:14.841Z,1015.78
2018-09-30T01:49:14.806Z,1015.77
2018-09-30T01:50:14.793Z,1015.73
2018-09-30T01:51:14.783Z,1015.71
2018-09-30T01:52:14.779Z,1015.74
2018-09-30T01:53:14.786Z,1015.66
2018-09-30T01:54:15.283Z,1015.66
2018-09-30T01:55:14.738Z,1015.64
2018-09-30T01:56:15.269Z,1015.63
2018-09-30T01:57:14.724Z,1015.60
2018-09-30T01:58:14.730Z,1015.59
2018-09-30T01:59:14.697Z,1015.62
2018-09-30T02:00:15.272Z,1015.53
2018-09-30T02:01:14.675Z,1015.56
2018-09-30T02:02:14.697Z,1015.56
2018-09-30T02:03:14.680Z,1015.54
2018-09-30T02:04:15.271Z,1015.51
2018-09-30T02:05:15.271Z,1015.50
2018-09-30T02:06:14.623Z,1015.46
2018-09-30T02:07:14.619Z,1015.41
2018-09-30T02:08:14.638Z,1015.45
2018-09-30T02:09:14.611Z,1015.51
2018-09-30T02:10:14.576Z,1015.48
2018-09-30T02:11:14.566Z,1015.47
2018-09-30T02:12:15.270Z,1015.51
2018-09-30T02:13:14.562Z,1015.39
2018-09-30T02:14:14.572Z,1015.42
2018-09-30T02:15:14.524Z,1015.41
2018-09-30T02:16:14.513Z,1015.42
2018-09-30T02:17:14.502Z,1015.45
2018-09-30T02:18:15.278Z,1015.40
2018-09-30T02:19:14.796Z,1015.40
2018-09-30T02:20:15.274Z,1015.42
2018-09-30T02:21:14.461Z,1015.40
2018-09-30T02:22:14.448Z,1015.39
2018-09-30T02:23:15.276Z,1015.38
2018-09-30T02:24:14.785Z,1015.41
2018-09-30T02:25:15.279Z,1015.40
2018-09-30T02:26:14.406Z,1015.35
2018-09-30T02:27:14.393Z,1015.37
2018-09-30T02:28:14.385Z,1015.35
2018-09-30T02:29:14.401Z,1015.28
2018-09-30T02:30:15.271Z,1015.31
2018-09-30T02:31:14.350Z,1015.30
2018-09-30T02:32:14.339Z,1015.30
2018-09-30T02:33:14.372Z,1015.25
2018-09-30T02:34:14.785Z,1015.27
2018-09-30T02:35:15.273Z,1015.29
2018-09-30T02:36:15.270Z,1015.25
2018-09-30T02:37:14.290Z,1015.19
2018-09-30T02:38:14.299Z,1015.20
2018-09-30T02:39:14.292Z,1015.23
2018-09-30T02:40:14.256Z,1015.25
2018-09-30T02:41:14.245Z,1015.21
2018-09-30T02:42:14.233Z,1015.23
2018-09-30T02:43:14.782Z,1015.24
2018-09-30T02:44:14.246Z,1015.20
2018-09-30T02:45:14.204Z,1015.13
2018-09-30T02:46:14.191Z,1015.19
2018-09-30T02:47:14.772Z,1015.11
2018-09-30T02:48:14.191Z,1015.15
2018-09-30T02:49:14.294Z,1015.12
2018-09-30T02:50:14.802Z,1015.10
2018-09-30T02:51:14.773Z,1015.04
2018-09-30T02:52:14.792Z,1015.07
2018-09-30T02:53:14.796Z,1015.14
2018-09-30T02:54:14.273Z,1015.10
2018-09-30T02:55:14.105Z,1015.09
2018-09-30T02:56:14.082Z,1015.09
2018-09-30T02:57:14.781Z,1015.08
2018-09-30T02:58:14.811Z,1015.03
2018-09-30T02:59:14.076Z,1015.00
2018-09-30T03:00:14.777Z,1014.98
2018-09-30T03:01:14.031Z,1014.95
2018-09-30T03:02:14.770Z,1014.93
2018-09-30T03:03:14.791Z,1014.94
2018-09-30T03:04:14.291Z,1014.93
2018-09-30T03:05:13.989Z,1014.91
2018-09-30T03:06:14.773Z,1014.93
2018-09-30T03:07:13.971Z,1014.95
2018-09-30T03:08:13.951Z,1014.88
2018-09-30T03:09:13.974Z,1014.90
2018-09-30T03:10:13.941Z,1014.90
2018-09-30T03:11:13.929Z,1014.84
2018-09-30T03:12:13.916Z,1014.81
2018-09-30T03:13:13.901Z,1014.82
2018-09-30T03:14:13.978Z,1014.77
2018-09-30T03:15:14.776Z,1014.75
2018-09-30T03:16:14.779Z,1014.76
2018-09-30T03:17:14.772Z,1014.70
2018-09-30T03:18:14.775Z,1014.71
2018-09-30T03:19:14.305Z,1014.71
2018-09-30T03:20:13.822Z,1014.69
2018-09-30T03:21:14.774Z,1014.65
2018-09-30T03:22:13.806Z,1014.69
2018-09-30T03:23:13.800Z,1014.67
2018-09-30T03:24:13.808Z,1014.68
2018-09-30T03:25:13.780Z,1014.66
2018-09-30T03:26:13.756Z,1014.65
2018-09-30T03:27:13.748Z,1014.69
2018-09-30T03:28:14.283Z,1014.64
2018-09-30T03:29:13.800Z,1014.61
2018-09-30T03:30:13.718Z,1014.62
2018-09-30T03:31:13.707Z,1014.62
2018-09-30T03:32:14.276Z,1014.60
2018-09-30T03:33:13.684Z,1014.54
2018-09-30T03:34:13.788Z,1014.56
2018-09-30T03:35:13.664Z,1014.50
2018-09-30T03:36:14.274Z,1014.52
2018-09-30T03:37:13.649Z,1014.51
2018-09-30T03:38:13.641Z,1014.47
2018-09-30T03:39:13.787Z,1014.44
2018-09-30T03:40:14.274Z,1014.45
2018-09-30T03:41:13.596Z,1014.43
2018-09-30T03:42:13.589Z,1014.47
2018-09-30T03:43:13.576Z,1014.41
2018-09-30T03:44:13.583Z,1014.42
2018-09-30T03:45:14.285Z,1014.40
2018-09-30T03:46:13.540Z,1014.41
2018-09-30T03:47:13.532Z,1014.44
2018-09-30T03:48:13.525Z,1014.43
2018-09-30T03:49:13.790Z,1014.47
2018-09-30T03:50:13.507Z,1014.47
2018-09-30T03:51:13.495Z,1014.47
2018-09-30T03:52:13.486Z,1014.45
2018-09-30T03:53:13.467Z,1014.40
2018-09-30T03:54:13.486Z,1014.42
2018-09-30T03:55:13.445Z,1014.41
2018-09-30T03:56:13.444Z,1014.42
2018-09-30T03:57:14.274Z,1014.47
2018-09-30T03:58:13.413Z,1014.42
2018-09-30T03:59:13.457Z,1014.44
2018-09-30T04:00:13.393Z,1014.49
2018-09-30T04:01:13.382Z,1014.45
2018-09-30T04:02:14.282Z,1014.46
2018-09-30T04:03:14.277Z,1014.46
2018-09-30T04:04:13.373Z,1014.53
2018-09-30T04:05:13.338Z,1014.50
2018-09-30T04:06:13.326Z,1014.57
2018-09-30T04:07:14.275Z,1014.54
2018-09-30T04:08:13.310Z,1014.54
2018-09-30T04:09:13.787Z,1014.57
2018-09-30T04:10:13.390Z,1014.54
2018-09-30T04:11:13.274Z,1014.50
2018-09-30T04:12:13.776Z,1014.51
2018-09-30T04:13:13.773Z,1014.53
2018-09-30T04:14:13.293Z,1014.47
2018-09-30T04:15:13.241Z,1014.47
2018-09-30T04:16:13.266Z,1014.46
2018-09-30T04:17:13.234Z,1014.43
2018-09-30T04:18:13.202Z,1014.39
2018-09-30T04:19:13.781Z,1014.40
2018-09-30T04:20:13.202Z,1014.38
2018-09-30T04:21:13.167Z,1014.37
2018-09-30T04:22:13.156Z,1014.38
2018-09-30T04:23:13.142Z,1014.33
2018-09-30T04:24:13.777Z,1014.37
2018-09-30T04:25:13.302Z,1014.45
2018-09-30T04:26:13.115Z,1014.37
2018-09-30T04:27:13.105Z,1014.36
2018-09-30T04:28:13.781Z,1014.42
2018-09-30T04:29:13.080Z,1014.39
2018-09-30T04:30:13.295Z,1014.39
2018-09-30T04:31:13.773Z,1014.38
2018-09-30T04:32:13.779Z,1014.38
2018-09-30T04:33:13.115Z,1014.38
2018-09-30T04:34:13.026Z,1014.40
2018-09-30T04:35:13.035Z,1014.40
2018-09-30T04:36:13.006Z,1014.38
2018-09-30T04:37:13.778Z,1014.41
2018-09-30T04:38:13.783Z,1014.41
2018-09-30T04:39:12.980Z,1014.42
2018-09-30T04:40:12.996Z,1014.35
2018-09-30T04:41:12.956Z,1014.36
2018-09-30T04:42:12.949Z,1014.35
2018-09-30T04:43:12.946Z,1014.40
2018-09-30T04:44:13.778Z,1014.34
2018-09-30T04:45:12.929Z,1014.31
2018-09-30T04:46:12.900Z,1014.33
2018-09-30T04:47:12.889Z,1014.28
2018-09-30T04:48:13.776Z,1014.29
2018-09-30T04:49:12.868Z,1014.30
2018-09-30T04:50:12.874Z,1014.30
2018-09-30T04:51:13.785Z,1014.27
2018-09-30T04:52:12.837Z,1014.27
2018-09-30T04:53:12.826Z,1014.27
2018-09-30T04:54:13.778Z,1014.26
2018-09-30T04:55:12.823Z,1014.24
2018-09-30T04:56:13.778Z,1014.26
2018-09-30T04:57:12.797Z,1014.21
2018-09-30T04:58:12.769Z,1014.28
2018-09-30T04:59:12.772Z,1014.26
2018-09-30T05:00:12.795Z,1014.28
2018-09-30T05:01:13.280Z,1014.23
2018-09-30T05:02:12.727Z,1014.24
2018-09-30T05:03:12.713Z,1014.26
2018-09-30T05:04:13.277Z,1014.27
2018-09-30T05:05:12.793Z,1014.24
2018-09-30T05:06:12.685Z,1014.27
2018-09-30T05:07:13.282Z,1014.26
2018-09-30T05:08:12.658Z,1014.26
2018-09-30T05:09:12.649Z,1014.29
2018-09-30T05:10:12.655Z,1014.23
2018-09-30T05:11:12.628Z,1014.28
2018-09-30T05:12:12.615Z,1014.31
2018-09-30T05:13:13.281Z,1014.29
2018-09-30T05:14:12.596Z,1014.31
2018-09-30T05:15:12.667Z,1014.27
2018-09-30T05:16:12.647Z,1014.29
2018-09-30T05:17:13.281Z,1014.25
2018-09-30T05:18:12.553Z,1014.26
2018-09-30T05:19:12.543Z,1014.24
2018-09-30T05:20:12.653Z,1014.26
2018-09-30T05:21:12.537Z,1014.21
2018-09-30T05:22:12.507Z,1014.24
2018-09-30T05:23:12.496Z,1014.24
2018-09-30T05:24:12.484Z,1014.28
2018-09-30T05:25:12.496Z,1014.25
2018-09-30T05:26:12.473Z,1014.27
2018-09-30T05:27:12.457Z,1014.29
2018-09-30T05:28:13.280Z,1014.29
2018-09-30T05:29:13.280Z,1014.29
2018-09-30T05:30:12.810Z,1014.34
2018-09-30T05:31:12.569Z,1014.33
2018-09-30T05:32:13.284Z,1014.33
2018-09-30T05:33:12.390Z,1014.40
2018-09-30T05:34:13.280Z,1014.36
2018-09-30T05:35:12.790Z,1014.37
2018-09-30T05:36:12.415Z,1014.38
2018-09-30T05:37:13.333Z,1014.40
2018-09-30T05:38:13.280Z,1014.42
2018-09-30T05:39:12.331Z,1014.38
2018-09-30T05:40:12.794Z,1014.37
2018-09-30T05:41:12.310Z,1014.35
2018-09-30T05:42:12.294Z,1014.36
2018-09-30T05:43:12.282Z,1014.32
2018-09-30T05:44:12.272Z,1014.27
2018-09-30T05:45:12.275Z,1014.35
2018-09-30T05:46:12.254Z,1014.33
2018-09-30T05:47:12.783Z,1014.39
2018-09-30T05:48:12.235Z,1014.38
2018-09-30T05:49:12.299Z,1014.39
2018-09-30T05:50:12.226Z,1014.38
2018-09-30T05:51:12.789Z,1014.34
2018-09-30T05:52:12.784Z,1014.32
2018-09-30T05:53:12.175Z,1014.41
2018-09-30T05:54:12.169Z,1014.35
2018-09-30T05:55:12.293Z,1014.28
2018-09-30T05:56:12.153Z,1014.33
2018-09-30T05:57:12.779Z,1014.35
2018-09-30T05:58:12.124Z,1014.34
2018-09-30T05:59:12.111Z,1014.35
2018-09-30T06:00:12.125Z,1014.36
2018-09-30T06:01:12.142Z,1014.33
2018-09-30T06:02:12.076Z,1014.36
2018-09-30T06:03:12.787Z,1014.39
2018-09-30T06:04:12.057Z,1014.40
2018-09-30T06:05:12.059Z,1014.40
2018-09-30T06:06:12.040Z,1014.39
2018-09-30T06:07:12.022Z,1014.41
2018-09-30T06:08:12.784Z,1014.41
2018-09-30T06:09:12.162Z,1014.39
2018-09-30T06:10:12.292Z,1014.40
2018-09-30T06:11:11.978Z,1014.42
2018-09-30T06:12:11.968Z,1014.40
2018-09-30T06:13:11.981Z,1014.44
2018-09-30T06:14:12.932Z,1014.41
2018-09-30T06:15:11.997Z,1014.43
2018-09-30T06:16:11.927Z,1014.41
2018-09-30T06:17:12.782Z,1014.35
2018-09-30T06:18:12.781Z,1014.33
2018-09-30T06:19:11.894Z,1014.31
2018-09-30T06:20:11.915Z,1014.31
2018-09-30T06:21:11.879Z,1014.28
2018-09-30T06:22:12.784Z,1014.29
2018-09-30T06:23:12.781Z,1014.34
2018-09-30T06:24:11.950Z,1014.32
2018-09-30T06:25:12.789Z,1014.32
2018-09-30T06:26:12.295Z,1014.30
2018-09-30T06:27:12.785Z,1014.32
2018-09-30T06:28:11.797Z,1014.30
2018-09-30T06:29:11.790Z,1014.30
2018-09-30T06:30:11.777Z,1014.26
2018-09-30T06:31:11.800Z,1014.28
2018-09-30T06:32:12.370Z,1014.26
2018-09-30T06:33:12.282Z,1014.23
2018-09-30T06:34:11.732Z,1014.23
2018-09-30T06:35:12.281Z,1014.27
2018-09-30T06:36:11.814Z,1014.22
2018-09-30T06:37:12.417Z,1014.24
2018-09-30T06:38:11.687Z,1014.22
2018-09-30T06:39:11.680Z,1014.23
2018-09-30T06:40:11.668Z,1014.20
2018-09-30T06:41:11.672Z,1014.16
2018-09-30T06:42:12.322Z,1014.19
2018-09-30T06:43:11.635Z,1014.18
2018-09-30T06:44:12.286Z,1014.13
2018-09-30T06:45:11.778Z,1014.19
2018-09-30T06:46:11.621Z,1014.21
2018-09-30T06:47:11.601Z,1014.23
2018-09-30T06:48:11.584Z,1014.22
2018-09-30T06:49:11.567Z,1014.25
2018-09-30T06:50:11.558Z,1014.24
2018-09-30T06:51:11.570Z,1014.25
2018-09-30T06:52:11.540Z,1014.28
2018-09-30T06:53:11.527Z,1014.24
2018-09-30T06:54:12.282Z,1014.28
2018-09-30T06:55:11.525Z,1014.28
2018-09-30T06:56:11.514Z,1014.32
2018-09-30T06:57:11.485Z,1014.31
2018-09-30T06:58:12.299Z,1014.31
2018-09-30T06:59:11.465Z,1014.34
2018-09-30T07:00:11.456Z,1014.34
2018-09-30T07:01:11.819Z,1014.32
2018-09-30T07:02:12.287Z,1014.32
2018-09-30T07:03:11.421Z,1014.33
2018-09-30T07:04:11.409Z,1014.33
2018-09-30T07:05:11.401Z,1014.31
2018-09-30T07:06:11.799Z,1014.29
2018-09-30T07:07:12.283Z,1014.28
2018-09-30T07:08:11.367Z,1014.25
2018-09-30T07:09:11.356Z,1014.23
2018-09-30T07:10:12.288Z,1014.17
2018-09-30T07:11:11.801Z,1014.17
2018-09-30T07:12:12.283Z,1014.14
2018-09-30T07:13:11.320Z,1014.14
2018-09-30T07:14:11.304Z,1014.13
2018-09-30T07:15:11.292Z,1014.19
2018-09-30T07:16:11.301Z,1014.19
2018-09-30T07:17:11.269Z,1014.23
2018-09-30T07:18:11.259Z,1014.26
2018-09-30T07:19:11.246Z,1014.27
2018-09-30T07:20:11.239Z,1014.27
2018-09-30T07:21:11.247Z,1014.27
2018-09-30T07:22:11.816Z,1014.26
2018-09-30T07:23:11.206Z,1014.26
2018-09-30T07:24:11.193Z,1014.26
2018-09-30T07:25:11.185Z,1014.26
2018-09-30T07:26:11.198Z,1014.24
2018-09-30T07:27:11.159Z,1014.26
2018-09-30T07:28:11.151Z,1014.27
2018-09-30T07:29:11.786Z,1014.26
2018-09-30T07:30:11.787Z,1014.28
2018-09-30T07:31:11.796Z,1014.30
2018-09-30T07:32:11.108Z,1014.28
2018-09-30T07:33:11.098Z,1014.27
2018-09-30T07:34:11.798Z,1014.28
2018-09-30T07:35:11.081Z,1014.28
2018-09-30T07:36:11.311Z,1014.28
2018-09-30T07:37:11.056Z,1014.30
2018-09-30T07:38:11.043Z,1014.32
2018-09-30T07:39:11.788Z,1014.33
2018-09-30T07:40:11.786Z,1014.34
2018-09-30T07:41:11.301Z,1014.37
2018-09-30T07:42:11.000Z,1014.34
2018-09-30T07:43:11.791Z,1014.34
2018-09-30T07:44:10.977Z,1014.33
2018-09-30T07:45:11.850Z,1014.29
2018-09-30T07:46:11.305Z,1014.28
2018-09-30T07:47:11.790Z,1014.24
2018-09-30T07:48:10.935Z,1014.25
2018-09-30T07:49:10.928Z,1014.22
2018-09-30T07:50:10.915Z,1014.25
2018-09-30T07:51:11.308Z,1014.22
2018-09-30T07:52:10.897Z,1014.26
2018-09-30T07:53:10.881Z,1014.24
2018-09-30T07:54:10.871Z,1014.21
2018-09-30T07:55:10.857Z,1014.18
2018-09-30T07:56:11.028Z,1014.20
2018-09-30T07:57:11.788Z,1014.17
2018-09-30T07:58:10.831Z,1014.21
2018-09-30T07:59:10.823Z,1014.18
2018-09-30T08:00:10.819Z,1014.21
2018-09-30T08:01:11.321Z,1014.15
2018-09-30T08:02:11.288Z,1014.14
2018-09-30T08:03:10.797Z,1014.18
2018-09-30T08:04:11.294Z,1014.09
2018-09-30T08:05:10.751Z,1014.16
2018-09-30T08:06:10.763Z,1014.15
2018-09-30T08:07:10.733Z,1014.12
2018-09-30T08:08:11.291Z,1014.18
2018-09-30T08:09:10.711Z,1014.18
2018-09-30T08:10:10.695Z,1014.18
2018-09-30T08:11:10.713Z,1014.05
2018-09-30T08:12:10.675Z,1014.09
2018-09-30T08:13:11.286Z,1014.10
2018-09-30T08:14:11.294Z,1014.06
2018-09-30T08:15:10.677Z,1014.03
2018-09-30T08:16:11.307Z,1014.07
2018-09-30T08:17:10.621Z,1014.07
2018-09-30T08:18:10.638Z,1014.12
2018-09-30T08:19:10.603Z,1014.13
2018-09-30T08:20:10.603Z,1014.13
2018-09-30T08:21:10.627Z,1014.13
2018-09-30T08:22:10.570Z,1014.17
2018-09-30T08:23:10.559Z,1014.18
2018-09-30T08:24:10.594Z,1014.15
2018-09-30T08:25:10.542Z,1014.14
2018-09-30T08:26:10.561Z,1014.15
2018-09-30T08:27:10.518Z,1014.14
2018-09-30T08:28:10.507Z,1014.16
2018-09-30T08:29:10.493Z,1014.07
2018-09-30T08:30:10.484Z,1014.11
2018-09-30T08:31:10.526Z,1014.10
2018-09-30T08:32:10.808Z,1014.08
2018-09-30T08:33:10.472Z,1014.12
2018-09-30T08:34:10.443Z,1014.13
2018-09-30T08:35:10.427Z,1014.15
2018-09-30T08:36:10.419Z,1014.12
2018-09-30T08:37:10.583Z,1014.08
2018-09-30T08:38:10.400Z,1014.09
2018-09-30T08:39:10.393Z,1014.09
2018-09-30T08:40:10.376Z,1014.10
2018-09-30T08:41:10.366Z,1014.14
2018-09-30T08:42:10.806Z,1014.09
2018-09-30T08:43:11.290Z,1014.11
2018-09-30T08:44:11.323Z,1014.07
2018-09-30T08:45:10.320Z,1014.13
2018-09-30T08:46:10.314Z,1014.09
2018-09-30T08:47:10.337Z,1014.11
2018-09-30T08:48:10.293Z,1014.09
2018-09-30T08:49:10.850Z,1014.07
2018-09-30T08:50:10.270Z,1014.02
2018-09-30T08:51:10.256Z,1014.05
2018-09-30T08:52:10.285Z,1014.02
2018-09-30T08:53:10.236Z,1014.00
2018-09-30T08:54:10.238Z,1014.02
2018-09-30T08:55:10.217Z,1014.00
2018-09-30T08:56:10.878Z,1014.05
2018-09-30T08:57:10.475Z,1014.05
2018-09-30T08:58:10.791Z,1014.07
2018-09-30T08:59:10.170Z,1014.04
2018-09-30T09:00:10.171Z,1014.05
2018-09-30T09:01:10.159Z,1013.99
2018-09-30T09:02:10.304Z,1014.06
2018-09-30T09:03:10.920Z,1014.04
2018-09-30T09:04:10.117Z,1014.01
2018-09-30T09:05:10.105Z,1014.09
2018-09-30T09:06:10.113Z,1014.08
2018-09-30T09:07:10.110Z,1014.06
2018-09-30T09:08:10.792Z,1014.05
2018-09-30T09:09:10.789Z,1014.08
2018-09-30T09:10:10.792Z,1014.04
2018-09-30T09:11:10.789Z,1014.05
2018-09-30T09:12:10.304Z,1014.06
2018-09-30T09:13:10.019Z,1014.05
2018-09-30T09:14:10.011Z,1014.07
2018-09-30T09:15:09.997Z,1014.05
2018-09-30T09:16:10.801Z,1014.09
2018-09-30T09:17:10.005Z,1014.07
2018-09-30T09:18:09.965Z,1014.05
2018-09-30T09:19:10.792Z,1014.03
2018-09-30T09:20:10.794Z,1014.10
2018-09-30T09:21:09.933Z,1014.03
2018-09-30T09:22:10.064Z,1014.10
2018-09-30T09:23:09.916Z,1014.10
2018-09-30T09:24:10.791Z,1014.05
2018-09-30T09:25:09.901Z,1014.09
2018-09-30T09:26:09.881Z,1014.08
2018-09-30T09:27:09.885Z,1014.04
2018-09-30T09:28:10.801Z,1014.03
2018-09-30T09:29:09.848Z,1014.01
2018-09-30T09:30:09.851Z,1014.01
2018-09-30T09:31:10.792Z,1014.01
2018-09-30T09:32:09.851Z,1013.99
2018-09-30T09:33:10.856Z,1013.98
2018-09-30T09:34:10.301Z,1014.00
2018-09-30T09:35:09.869Z,1014.00
2018-09-30T09:36:10.295Z,1013.95
2018-09-30T09:37:09.784Z,1013.93
2018-09-30T09:38:09.750Z,1013.89
2018-09-30T09:39:10.292Z,1013.86
2018-09-30T09:40:10.297Z,1013.82
2018-09-30T09:41:10.294Z,1013.84
2018-09-30T09:42:09.875Z,1013.83
2018-09-30T09:43:09.702Z,1013.86
2018-09-30T09:44:09.693Z,1013.82
2018-09-30T09:45:10.307Z,1013.86
2018-09-30T09:46:09.663Z,1013.82
2018-09-30T09:47:09.758Z,1013.83
2018-09-30T09:48:09.644Z,1013.83
2018-09-30T09:49:09.630Z,1013.82
2018-09-30T09:50:09.630Z,1013.78
2018-09-30T09:51:09.611Z,1013.78
2018-09-30T09:52:09.808Z,1013.75
2018-09-30T09:53:09.593Z,1013.79
2018-09-30T09:54:10.292Z,1013.78
2018-09-30T09:55:09.570Z,1013.80
2018-09-30T09:56:09.557Z,1013.74
2018-09-30T09:57:09.573Z,1013.74
2018-09-30T09:58:10.292Z,1013.73
2018-09-30T09:59:10.420Z,1013.71
2018-09-30T10:00:10.293Z,1013.64
2018-09-30T10:01:09.510Z,1013.66
2018-09-30T10:02:09.788Z,1013.59
2018-09-30T10:03:10.296Z,1013.60
2018-09-30T10:04:09.483Z,1013.56
2018-09-30T10:05:09.533Z,1013.56
2018-09-30T10:06:09.457Z,1013.54
2018-09-30T10:07:09.459Z,1013.51
2018-09-30T10:08:09.470Z,1013.51
2018-09-30T10:09:10.302Z,1013.47
2018-09-30T10:10:10.304Z,1013.48
2018-09-30T10:11:09.402Z,1013.48
2018-09-30T10:12:09.403Z,1013.46
2018-09-30T10:13:10.389Z,1013.45
2018-09-30T10:14:10.294Z,1013.45
2018-09-30T10:15:09.387Z,1013.46
2018-09-30T10:16:10.297Z,1013.45
2018-09-30T10:17:09.457Z,1013.40
2018-09-30T10:18:09.318Z,1013.39
2018-09-30T10:19:10.295Z,1013.45
2018-09-30T10:20:09.314Z,1013.44
2018-09-30T10:21:09.799Z,1013.42
2018-09-30T10:22:09.304Z,1013.42
2018-09-30T10:23:09.269Z,1013.42
2018-09-30T10:24:09.795Z,1013.38
2018-09-30T10:25:09.288Z,1013.33
2018-09-30T10:26:09.795Z,1013.25
2018-09-30T10:27:09.308Z,1013.29
2018-09-30T10:28:09.212Z,1013.25
2018-09-30T10:29:09.795Z,1013.22
2018-09-30T10:30:09.795Z,1013.17
2018-09-30T10:31:09.182Z,1013.12
2018-09-30T10:32:09.173Z,1013.09
2018-09-30T10:33:09.310Z,1013.14
2018-09-30T10:34:09.791Z,1013.12
2018-09-30T10:35:09.138Z,1013.16
2018-09-30T10:36:09.812Z,1013.07
2018-09-30T10:37:09.116Z,1013.05
2018-09-30T10:38:09.331Z,1012.99
2018-09-30T10:39:09.929Z,1012.91
2018-09-30T10:40:09.095Z,1012.96
2018-09-30T10:41:09.096Z,1012.93
2018-09-30T10:42:09.064Z,1012.96
2018-09-30T10:43:09.066Z,1012.89
2018-09-30T10:44:09.794Z,1012.87
2018-09-30T10:45:09.794Z,1012.84
2018-09-30T10:46:09.026Z,1012.82
2018-09-30T10:47:09.012Z,1012.80
2018-09-30T10:48:09.016Z,1012.80
2018-09-30T10:49:09.804Z,1012.78
2018-09-30T10:50:08.992Z,1012.77
2018-09-30T10:51:08.983Z,1012.80
2018-09-30T10:52:08.956Z,1012.78
2018-09-30T10:53:08.964Z,1012.76
2018-09-30T10:54:08.935Z,1012.79
2018-09-30T10:55:08.949Z,1012.77
2018-09-30T10:56:08.915Z,1012.78
2018-09-30T10:57:08.906Z,1012.79
2018-09-30T10:58:08.924Z,1012.72
2018-09-30T10:59:08.881Z,1012.74
2018-09-30T11:00:08.872Z,1012.65
2018-09-30T11:01:08.859Z,1012.66
2018-09-30T11:02:09.808Z,1012.63
2018-09-30T11:03:08.886Z,1012.58
2018-09-30T11:04:08.830Z,1012.56
2018-09-30T11:05:08.816Z,1012.57
2018-09-30T11:06:09.876Z,1012.57
2018-09-30T11:07:09.297Z,1012.56
2018-09-30T11:08:08.810Z,1012.52
2018-09-30T11:09:09.297Z,1012.56
2018-09-30T11:10:09.381Z,1012.52
2018-09-30T11:11:09.318Z,1012.52
2018-09-30T11:12:08.747Z,1012.51
2018-09-30T11:13:08.751Z,1012.49
2018-09-30T11:14:08.718Z,1012.50
2018-09-30T11:15:09.300Z,1012.47
2018-09-30T11:16:08.712Z,1012.48
2018-09-30T11:17:09.303Z,1012.45
2018-09-30T11:18:08.706Z,1012.44
2018-09-30T11:19:08.663Z,1012.45
2018-09-30T11:20:08.670Z,1012.48
2018-09-30T11:21:08.646Z,1012.42
2018-09-30T11:22:08.633Z,1012.39
2018-09-30T11:23:08.652Z,1012.33
2018-09-30T11:24:08.613Z,1012.35
2018-09-30T11:25:09.299Z,1012.31
2018-09-30T11:26:08.670Z,1012.28
2018-09-30T11:27:08.581Z,1012.33
2018-09-30T11:28:08.588Z,1012.27
2018-09-30T11:29:08.561Z,1012.32
2018-09-30T11:30:08.549Z,1012.31
2018-09-30T11:31:09.304Z,1012.30
2018-09-30T11:32:08.527Z,1012.29
2018-09-30T11:33:08.552Z,1012.27
2018-09-30T11:34:08.505Z,1012.29
2018-09-30T11:35:08.495Z,1012.32
2018-09-30T11:36:08.488Z,1012.27
2018-09-30T11:37:08.487Z,1012.25
2018-09-30T11:38:08.502Z,1012.28
2018-09-30T11:39:09.295Z,1012.25
2018-09-30T11:40:08.442Z,1012.20
2018-09-30T11:41:08.432Z,1012.26
2018-09-30T11:42:09.316Z,1012.26
2018-09-30T11:43:08.810Z,1012.27
2018-09-30T11:44:08.407Z,1012.26
2018-09-30T11:45:09.297Z,1012.25
2018-09-30T11:46:08.391Z,1012.24
2018-09-30T11:47:09.297Z,1012.20
2018-09-30T11:48:08.427Z,1012.28
2018-09-30T11:49:08.366Z,1012.26
2018-09-30T11:50:08.334Z,1012.24
2018-09-30T11:51:08.322Z,1012.22
2018-09-30T11:52:08.338Z,1012.20
2018-09-30T11:53:08.317Z,1012.16
2018-09-30T11:54:08.298Z,1012.13
2018-09-30T11:55:08.280Z,1012.14
2018-09-30T11:56:08.270Z,1012.09
2018-09-30T11:57:08.823Z,1012.13
2018-09-30T11:58:08.311Z,1012.13
2018-09-30T11:59:08.799Z,1012.06
2018-09-30T12:00:08.236Z,1012.07
2018-09-30T12:01:08.276Z,1011.99
2018-09-30T12:02:08.296Z,1012.01
2018-09-30T12:03:08.218Z,1012.00
2018-09-30T12:04:08.183Z,1011.96
2018-09-30T12:05:08.183Z,1011.93